Terminal Aerodrome Forecast
Issued by NWS Twin Cities, MN

Home | Current Version | Previous Version | Text Only | Print | Product List | Glossary Off
Versions: 1 2 3 4 5 6 7 8 9 10 11 12 13 14 15 16 17 18 19 20 21 22 23 24 25 26 27 28 29 30 31

096
FTUS43 KMPX 200520
TAFMSP
TAF
KMSP 200520Z 2006/2112 13004KT 6SM BR VCSH SCT005 OVC015
     FM200900 12004KT 2SM -DZ BR BKN005
     FM201600 11004KT 3SM BR OVC005
     FM210600 12005KT 4SM -RA BR OVC005=

USA.gov is the U.S. government's official web portal to all federal, state and local government web resources and services.